createdAt,value
2018-11-23T00:01:47.029Z,18.53
2018-11-23T00:04:19.067Z,19.50
2018-11-23T00:06:51.123Z,16.77
2018-11-23T00:09:22.352Z,22.03
2018-11-23T00:11:53.434Z,19.07
2018-11-23T00:14:24.625Z,21.37
2018-11-23T00:16:55.736Z,20.87
2018-11-23T00:19:26.884Z,21.77
2018-11-23T00:21:58.077Z,19.17
2018-11-23T00:24:29.275Z,16.80
2018-11-23T00:27:00.477Z,20.20
2018-11-23T00:29:31.753Z,20.43
2018-11-23T00:32:02.959Z,18.33
2018-11-23T00:34:34.088Z,22.23
2018-11-23T00:37:05.230Z,21.23
2018-11-23T00:39:36.398Z,16.23
2018-11-23T00:42:07.676Z,22.63
2018-11-23T00:44:38.800Z,23.27
2018-11-23T00:47:09.954Z,22.30
2018-11-23T00:49:41.125Z,19.90
2018-11-23T00:52:12.275Z,19.37
2018-11-23T00:54:43.462Z,20.90
2018-11-23T00:57:20.596Z,20.23
2018-11-23T00:59:57.753Z,19.07
2018-11-23T01:02:28.964Z,18.17
2018-11-23T01:05:00.176Z,18.03
2018-11-23T01:07:31.310Z,18.50
2018-11-23T01:10:02.588Z,17.20
2018-11-23T01:12:33.837Z,19.67
2018-11-23T01:15:05.155Z,18.53
2018-11-23T01:17:36.463Z,18.00
2018-11-23T01:20:12.255Z,16.90
2018-11-23T01:22:43.576Z,15.60
2018-11-23T01:25:15.940Z,15.53
2018-11-23T01:27:48.065Z,20.27
2018-11-23T01:30:24.025Z,17.87
2018-11-23T01:32:55.170Z,19.80
2018-11-23T01:35:26.549Z,17.73
2018-11-23T01:37:57.665Z,20.60
2018-11-23T01:40:30.175Z,21.10
2018-11-23T01:43:01.329Z,20.10
2018-11-23T01:45:32.517Z,17.10
2018-11-23T01:48:03.661Z,18.57
2018-11-23T01:50:34.916Z,18.80
2018-11-23T01:53:06.126Z,17.73
2018-11-23T01:55:37.256Z,17.50
2018-11-23T01:58:08.365Z,18.53
2018-11-23T02:00:39.542Z,19.07
2018-11-23T02:03:10.664Z,16.23
2018-11-23T02:05:43.480Z,18.63
2018-11-23T02:08:14.627Z,17.60
2018-11-23T02:10:45.768Z,19.30
2018-11-23T02:13:16.898Z,18.23
2018-11-23T02:15:48.071Z,18.10
2018-11-23T02:18:19.196Z,17.47
2018-11-23T02:20:50.324Z,18.00
2018-11-23T02:23:21.418Z,17.63
2018-11-23T02:25:53.079Z,17.57
2018-11-23T02:28:24.179Z,17.33
2018-11-23T02:30:55.438Z,20.60
2018-11-23T02:33:26.606Z,18.97
2018-11-23T02:35:57.888Z,19.37
2018-11-23T02:38:28.990Z,16.57
2018-11-23T02:41:00.157Z,16.67
2018-11-23T02:43:31.255Z,19.20
2018-11-23T02:46:02.449Z,19.00
2018-11-23T02:48:33.569Z,23.23
2018-11-23T02:51:04.824Z,17.77
2018-11-23T02:53:36.029Z,21.40
2018-11-23T02:56:07.361Z,15.97
2018-11-23T02:58:38.492Z,23.90
2018-11-23T03:01:09.719Z,21.33
2018-11-23T03:03:40.881Z,19.53
2018-11-23T03:06:12.022Z,18.50
2018-11-23T03:08:43.145Z,19.53
2018-11-23T03:11:14.252Z,20.07
2018-11-23T03:13:45.376Z,23.50
2018-11-23T03:16:16.521Z,16.77
2018-11-23T03:18:47.669Z,18.30
2018-11-23T03:21:18.912Z,24.33
2018-11-23T03:23:50.008Z,21.07
2018-11-23T03:26:21.156Z,18.37
2018-11-23T03:28:52.933Z,20.53
2018-11-23T03:31:25.297Z,21.43
2018-11-23T03:33:56.613Z,21.00
2018-11-23T03:36:27.757Z,22.70
2018-11-23T03:38:58.896Z,17.90
2018-11-23T03:41:30.117Z,19.43
2018-11-23T03:44:01.238Z,20.73
2018-11-23T03:46:32.457Z,18.87
2018-11-23T03:49:03.744Z,20.40
2018-11-23T03:51:34.909Z,18.07
2018-11-23T03:54:06.787Z,19.53
2018-11-23T03:56:38.131Z,16.17
2018-11-23T03:59:09.233Z,18.23
2018-11-23T04:01:40.361Z,15.37
2018-11-23T04:04:11.528Z,15.73
2018-11-23T04:06:42.690Z,18.87
2018-11-23T04:09:13.828Z,17.60
2018-11-23T04:11:44.958Z,18.57
2018-11-23T04:14:16.172Z,18.20
2018-11-23T04:16:47.315Z,20.90
2018-11-23T04:19:18.439Z,17.47
2018-11-23T04:21:49.575Z,22.03
2018-11-23T04:24:20.717Z,18.13
2018-11-23T04:26:51.902Z,18.80
2018-11-23T04:29:23.019Z,20.73
2018-11-23T04:31:54.305Z,18.33
2018-11-23T04:34:25.853Z,19.10
2018-11-23T04:36:58.101Z,19.23
2018-11-23T04:39:31.668Z,17.30
2018-11-23T04:42:02.810Z,21.93
2018-11-23T04:44:33.952Z,21.03
2018-11-23T04:47:05.104Z,17.73
2018-11-23T04:49:36.234Z,22.03
2018-11-23T04:52:07.578Z,17.50
2018-11-23T04:54:38.696Z,20.97
2018-11-23T04:57:09.856Z,17.17
2018-11-23T04:59:40.962Z,18.43
2018-11-23T05:02:12.109Z,22.83
2018-11-23T05:04:43.265Z,18.40
2018-11-23T05:07:17.222Z,19.03
2018-11-23T05:09:48.628Z,16.70
2018-11-23T05:12:19.742Z,19.33
2018-11-23T05:14:50.893Z,21.27
2018-11-23T05:17:22.078Z,20.27
2018-11-23T05:19:53.285Z,21.57
2018-11-23T05:22:24.474Z,23.10
2018-11-23T05:24:55.579Z,24.40
2018-11-23T05:27:26.827Z,22.13
2018-11-23T05:29:57.957Z,20.67
2018-11-23T05:32:29.105Z,19.35
2018-11-23T05:35:00.241Z,20.73
2018-11-23T05:37:31.483Z,18.70
2018-11-23T05:40:02.726Z,18.83
2018-11-23T05:42:33.900Z,18.57
2018-11-23T05:45:05.941Z,14.60
2018-11-23T05:47:38.019Z,14.67
2018-11-23T05:50:13.664Z,16.43
2018-11-23T05:52:45.285Z,14.67
2018-11-23T05:55:16.420Z,19.67
2018-11-23T05:57:47.656Z,16.53
2018-11-23T06:00:21.324Z,18.30
2018-11-23T06:02:52.523Z,16.17
2018-11-23T06:05:23.669Z,17.47
2018-11-23T06:07:54.820Z,17.57
2018-11-23T06:10:25.960Z,15.23
2018-11-23T06:12:57.097Z,18.63
2018-11-23T06:15:28.242Z,15.57
2018-11-23T06:17:59.461Z,19.23
2018-11-23T06:20:30.614Z,18.60
2018-11-23T06:23:01.798Z,17.70
2018-11-23T06:25:41.193Z,17.83
2018-11-23T06:28:12.322Z,18.30
2018-11-23T06:30:43.438Z,17.17
2018-11-23T06:33:35.124Z,17.43
2018-11-23T06:36:06.342Z,16.80
2018-11-23T06:38:37.596Z,18.57
2018-11-23T06:41:10.555Z,16.63
2018-11-23T06:43:41.601Z,19.37
2018-11-23T06:46:13.381Z,18.63
2018-11-23T06:48:44.648Z,18.80
2018-11-23T06:51:15.789Z,16.57
2018-11-23T06:53:47.049Z,20.27
2018-11-23T06:56:18.191Z,17.57
2018-11-23T06:58:49.348Z,18.60
2018-11-23T07:01:20.581Z,17.17
2018-11-23T07:03:52.437Z,20.90
2018-11-23T07:06:23.625Z,20.80
2018-11-23T07:08:54.851Z,19.27
2018-11-23T07:11:26.040Z,18.15
2018-11-23T07:14:03.739Z,17.97
2018-11-23T07:16:29.271Z,18.07
2018-11-23T07:19:00.452Z,20.53
2018-11-23T07:21:31.643Z,19.80
2018-11-23T07:24:02.903Z,19.97
2018-11-23T07:26:34.139Z,26.17
2018-11-23T07:29:05.656Z,13.87
2018-11-23T07:31:36.956Z,21.00
2018-11-23T07:34:08.122Z,20.03
2018-11-23T07:36:39.370Z,20.40
2018-11-23T07:39:46.987Z,26.77
2018-11-23T07:42:28.806Z,22.20
2018-11-23T07:45:00.816Z,22.67
2018-11-23T07:47:32.002Z,27.43
2018-11-23T07:50:03.152Z,25.93
2018-11-23T07:52:34.270Z,26.83
2018-11-23T07:55:06.454Z,22.10
2018-11-23T07:57:37.730Z,19.77
2018-11-23T08:00:13.830Z,19.50
2018-11-23T08:02:45.473Z,22.50
2018-11-23T08:05:17.491Z,19.93
2018-11-23T08:07:48.609Z,20.07
2018-11-23T08:10:18.483Z,25.43
2018-11-23T08:12:50.666Z,24.33
2018-11-23T08:15:25.622Z,26.60
2018-11-23T08:17:56.771Z,23.47
2018-11-23T08:20:28.008Z,20.30
2018-11-23T08:22:59.136Z,23.97
2018-11-23T08:25:30.272Z,19.47
2018-11-23T08:28:01.390Z,20.97
2018-11-23T08:30:32.599Z,21.67
2018-11-23T08:33:03.805Z,24.67
2018-11-23T08:35:35.016Z,25.70
2018-11-23T08:38:06.260Z,23.77
2018-11-23T08:40:39.261Z,25.07
2018-11-23T08:43:10.485Z,24.50
2018-11-23T08:45:41.646Z,25.30
2018-11-23T08:48:12.827Z,21.97
2018-11-23T08:50:44.107Z,21.60
2018-11-23T08:53:15.255Z,28.40
2018-11-23T08:55:46.459Z,24.67
2018-11-23T08:58:17.704Z,26.17
2018-11-23T09:00:48.885Z,26.17
2018-11-23T09:03:20.150Z,26.33
2018-11-23T09:05:51.423Z,26.40
2018-11-23T09:08:22.650Z,24.33
2018-11-23T09:10:54.117Z,30.27
2018-11-23T09:13:25.347Z,26.53
2018-11-23T09:15:56.561Z,26.53
2018-11-23T09:18:27.746Z,26.03
2018-11-23T09:20:58.938Z,28.63
2018-11-23T09:23:30.106Z,25.00
2018-11-23T09:26:01.293Z,29.50
2018-11-23T09:28:32.448Z,25.20
2018-11-23T09:31:03.678Z,29.87
2018-11-23T09:33:34.872Z,27.03
2018-11-23T09:36:06.034Z,25.67
2018-11-23T09:38:37.314Z,23.07
2018-11-23T09:41:08.514Z,27.67
2018-11-23T09:43:39.756Z,26.30
2018-11-23T09:46:11.000Z,22.87
2018-11-23T09:48:42.182Z,29.80
2018-11-23T09:51:13.307Z,30.97
2018-11-23T09:53:44.495Z,33.03
2018-11-23T09:56:15.767Z,30.73
2018-11-23T09:58:47.023Z,29.73
2018-11-23T10:01:18.244Z,31.40
2018-11-23T10:03:49.358Z,30.00
2018-11-23T10:06:20.575Z,28.73
2018-11-23T10:08:51.787Z,30.80
2018-11-23T10:11:22.981Z,30.97
2018-11-23T10:13:55.040Z,27.23
2018-11-23T10:16:26.273Z,31.93
2018-11-23T10:18:57.369Z,31.53
2018-11-23T10:21:40.012Z,28.77
2018-11-23T10:24:16.556Z,31.77
2018-11-23T10:26:47.918Z,31.70
2018-11-23T10:29:19.498Z,29.83
2018-11-23T10:31:50.686Z,23.67
2018-11-23T10:34:21.829Z,29.70
2018-11-23T10:36:53.006Z,29.87
2018-11-23T10:39:24.179Z,26.63
2018-11-23T10:41:55.341Z,28.40
2018-11-23T10:44:26.492Z,22.50
2018-11-23T10:46:57.699Z,24.17
2018-11-23T10:49:29.772Z,26.93
2018-11-23T10:52:00.954Z,24.97
2018-11-23T10:54:32.087Z,23.93
2018-11-23T10:57:03.346Z,21.23
2018-11-23T10:59:34.506Z,21.73
2018-11-23T11:02:22.978Z,23.57
2018-11-23T11:05:12.766Z,20.20
2018-11-23T11:07:43.995Z,22.30
2018-11-23T11:10:15.347Z,25.03
2018-11-23T11:12:46.585Z,21.87
2018-11-23T11:15:17.744Z,23.67
2018-11-23T11:17:49.018Z,25.80
2018-11-23T11:20:20.387Z,25.00
2018-11-23T11:22:51.771Z,21.40
2018-11-23T11:25:22.885Z,20.13
2018-11-23T11:27:54.134Z,21.73
2018-11-23T11:30:25.296Z,25.37
2018-11-23T11:32:56.517Z,27.05
2018-11-23T11:35:27.671Z,25.05
2018-11-23T11:37:58.851Z,26.02
2018-11-23T11:40:30.018Z,28.80
2018-11-23T11:43:01.231Z,26.27
2018-11-23T11:45:32.430Z,25.80
2018-11-23T11:48:03.628Z,27.77
2018-11-23T11:50:34.770Z,26.37
2018-11-23T11:53:06.032Z,23.87
2018-11-23T11:55:37.177Z,25.13
2018-11-23T11:58:08.405Z,24.02
2018-11-23T12:00:39.688Z,23.98
2018-11-23T12:03:10.844Z,23.93
2018-11-23T12:05:42.005Z,25.17
2018-11-23T12:08:13.208Z,24.35
2018-11-23T12:10:44.410Z,19.47
2018-11-23T12:13:15.579Z,23.63
2018-11-23T12:15:46.789Z,22.10
2018-11-23T12:18:18.045Z,26.87
2018-11-23T12:20:49.169Z,24.93
2018-11-23T12:23:20.309Z,25.67
2018-11-23T12:25:51.448Z,21.93
2018-11-23T12:28:22.589Z,30.13
2018-11-23T12:30:53.731Z,25.07
2018-11-23T12:33:24.909Z,27.13
2018-11-23T12:35:56.172Z,25.60
2018-11-23T12:38:27.504Z,24.87
2018-11-23T12:40:58.669Z,23.90
2018-11-23T12:43:29.840Z,21.40
2018-11-23T12:46:01.028Z,22.57
2018-11-23T12:48:32.283Z,23.07
2018-11-23T12:51:03.430Z,23.23
2018-11-23T12:53:34.726Z,24.27
2018-11-23T12:56:06.465Z,21.77
2018-11-23T12:58:37.684Z,21.23
2018-11-23T13:01:08.981Z,27.20
2018-11-23T13:03:40.273Z,26.03
2018-11-23T13:06:11.393Z,23.70
2018-11-23T13:08:45.398Z,28.37
2018-11-23T13:11:16.562Z,28.80
2018-11-23T13:13:47.748Z,28.98
2018-11-23T13:16:18.918Z,29.50
2018-11-23T13:18:50.095Z,25.17
2018-11-23T13:21:21.250Z,23.33
2018-11-23T13:23:52.447Z,26.80
2018-11-23T13:26:26.446Z,23.62
2018-11-23T13:28:57.692Z,21.77
2018-11-23T13:31:28.953Z,22.87
2018-11-23T13:34:00.221Z,20.97
2018-11-23T13:36:31.498Z,21.57
2018-11-23T13:39:03.670Z,21.77
2018-11-23T13:41:35.696Z,23.83
2018-11-23T13:44:07.013Z,22.83
2018-11-23T13:46:38.186Z,24.33
2018-11-23T13:49:10.389Z,19.33
2018-11-23T13:51:41.612Z,22.07
2018-11-23T13:54:12.784Z,22.40
2018-11-23T13:56:45.249Z,24.75
2018-11-23T13:59:16.694Z,23.65
2018-11-23T14:01:47.922Z,24.75
2018-11-23T14:04:19.090Z,21.75
2018-11-23T14:06:50.289Z,23.50
2018-11-23T14:09:21.560Z,24.13
2018-11-23T14:11:52.911Z,24.12
2018-11-23T14:14:24.205Z,22.70
2018-11-23T14:16:55.381Z,20.23
2018-11-23T14:19:26.558Z,22.62
2018-11-23T14:21:57.767Z,20.27
2018-11-23T14:24:31.134Z,20.75
2018-11-23T14:27:02.286Z,22.10
2018-11-23T14:29:33.447Z,21.80
2018-11-23T14:32:04.630Z,22.30
2018-11-23T14:34:35.832Z,19.70
2018-11-23T14:37:07.169Z,23.73
2018-11-23T14:39:38.429Z,21.43
2018-11-23T14:42:10.350Z,21.37
2018-11-23T14:44:41.736Z,20.27
2018-11-23T14:47:13.021Z,20.27
2018-11-23T14:49:44.192Z,21.35
2018-11-23T14:52:22.789Z,22.48
2018-11-23T14:54:54.015Z,21.93
2018-11-23T14:57:25.257Z,22.87
2018-11-23T14:59:56.457Z,23.37
2018-11-23T15:02:27.734Z,24.10
2018-11-23T15:04:58.954Z,24.05
2018-11-23T15:07:30.197Z,24.45
2018-11-23T15:10:01.462Z,25.90
2018-11-23T15:12:32.720Z,27.80
2018-11-23T15:15:04.029Z,24.30
2018-11-23T15:17:38.742Z,26.33
2018-11-23T15:20:15.920Z,24.10
2018-11-23T15:22:47.849Z,22.83
2018-11-23T15:25:24.689Z,18.93
2018-11-23T15:28:01.740Z,22.27
2018-11-23T15:30:47.098Z,22.57
2018-11-23T15:33:18.945Z,23.97
2018-11-23T15:35:50.157Z,23.23
2018-11-23T15:38:22.963Z,24.10
2018-11-23T15:40:54.103Z,25.63
2018-11-23T15:43:25.258Z,26.30
2018-11-23T15:45:56.425Z,26.07
2018-11-23T15:48:27.646Z,25.07
2018-11-23T15:51:06.746Z,25.60
2018-11-23T15:53:54.420Z,27.30
2018-11-23T15:56:25.586Z,27.47
2018-11-23T15:58:56.844Z,28.60
2018-11-23T16:01:27.984Z,27.30
2018-11-23T16:03:59.163Z,26.47
2018-11-23T16:06:30.514Z,27.60
2018-11-23T16:09:01.775Z,29.27
2018-11-23T16:11:32.956Z,29.23
2018-11-23T16:14:04.139Z,33.67
2018-11-23T16:16:35.377Z,34.97
2018-11-23T16:19:06.551Z,32.40
2018-11-23T16:21:37.756Z,31.60
2018-11-23T16:24:09.041Z,25.37
2018-11-23T16:26:40.210Z,29.57
2018-11-23T16:29:11.378Z,30.03
2018-11-23T16:31:47.363Z,34.73
2018-11-23T16:34:24.165Z,29.70
2018-11-23T16:36:55.407Z,25.57
2018-11-23T16:39:26.610Z,28.10
2018-11-23T16:41:57.895Z,28.13
2018-11-23T16:44:29.045Z,30.30
2018-11-23T16:47:00.214Z,30.60
2018-11-23T16:49:31.383Z,33.90
2018-11-23T16:52:02.693Z,30.17
2018-11-23T16:54:33.952Z,28.20
2018-11-23T16:57:05.502Z,26.60
2018-11-23T17:08:15.063Z,31.47
2018-11-23T17:10:46.228Z,32.33
2018-11-23T17:13:17.387Z,30.40
2018-11-23T17:15:48.589Z,28.80
2018-11-23T17:18:20.166Z,33.53
2018-11-23T17:58:24.237Z,27.50
2018-11-23T18:00:55.711Z,27.00
2018-11-23T18:03:33.175Z,33.37
2018-11-23T18:06:06.999Z,30.20
2018-11-23T18:08:52.275Z,26.50
2018-11-23T18:23:49.139Z,29.77
2018-11-23T18:26:20.420Z,26.00
2018-11-23T18:28:51.661Z,24.70
2018-11-23T18:42:58.415Z,27.77
2018-11-23T18:48:18.541Z,28.40
2018-11-23T18:50:49.861Z,26.77
2018-11-23T19:07:59.867Z,25.00
2018-11-23T19:13:25.534Z,27.73
2018-11-23T19:19:04.604Z,31.83
2018-11-23T19:21:35.858Z,28.90
2018-11-23T19:24:07.279Z,30.50
2018-11-23T19:26:38.645Z,27.40
2018-11-23T19:29:22.214Z,29.17
2018-11-23T19:31:59.573Z,32.83
2018-11-23T19:34:30.789Z,31.57
2018-11-23T19:37:11.913Z,31.50
2018-11-23T19:39:43.128Z,26.77
2018-11-23T19:42:20.086Z,28.67
2018-11-23T19:44:51.251Z,27.33
2018-11-23T19:53:05.715Z,24.67
2018-11-23T19:55:37.023Z,29.20
2018-11-23T20:01:14.460Z,26.47
2018-11-23T20:03:45.826Z,33.07
2018-11-23T20:06:22.461Z,30.63
2018-11-23T20:09:03.329Z,27.27
2018-11-23T20:11:53.138Z,28.80
2018-11-23T20:14:24.297Z,27.53
2018-11-23T20:16:55.738Z,24.43
2018-11-23T20:19:28.350Z,27.30
2018-11-23T20:24:46.306Z,26.57
2018-11-23T20:27:17.636Z,30.20
2018-11-23T20:29:53.968Z,28.97
2018-11-23T20:32:28.900Z,27.50
2018-11-23T20:35:00.170Z,26.40
2018-11-23T20:37:32.718Z,27.17
2018-11-23T20:40:04.026Z,31.13
2018-11-23T20:42:36.365Z,28.30
2018-11-23T20:45:10.555Z,25.77
2018-11-23T20:50:32.975Z,29.40
2018-11-23T20:55:53.236Z,32.37
2018-11-23T21:06:39.579Z,28.77
2018-11-23T21:09:11.587Z,28.07
2018-11-23T21:11:42.892Z,28.20
2018-11-23T21:22:41.189Z,25.50
2018-11-23T21:25:12.820Z,23.83
2018-11-23T21:27:44.073Z,25.57
2018-11-23T21:30:19.299Z,28.57
2018-11-23T21:32:51.845Z,29.07
2018-11-23T21:35:23.146Z,25.57
2018-11-23T21:37:54.482Z,22.87
2018-11-23T21:40:25.769Z,23.70
2018-11-23T21:42:57.091Z,25.53
2018-11-23T21:45:28.395Z,28.40
2018-11-23T21:47:59.553Z,24.20
2018-11-23T21:50:30.752Z,27.53
2018-11-23T21:53:01.961Z,26.93
2018-11-23T21:55:33.218Z,27.73
2018-11-23T21:58:04.458Z,31.97
2018-11-23T22:00:35.652Z,29.47
2018-11-23T22:03:06.963Z,27.83
2018-11-23T22:05:43.805Z,28.73
2018-11-23T22:08:20.956Z,27.63
2018-11-23T22:10:54.541Z,26.77
2018-11-23T22:13:25.804Z,25.83
2018-11-23T22:15:57.014Z,24.37
2018-11-23T22:18:34.377Z,24.13
2018-11-23T22:21:10.767Z,24.00
2018-11-23T22:23:42.037Z,26.27
2018-11-23T22:26:17.158Z,30.60
2018-11-23T22:31:37.413Z,26.37
2018-11-23T22:34:08.613Z,27.57
2018-11-23T22:36:39.773Z,23.83
2018-11-23T22:39:10.968Z,28.27
2018-11-23T22:41:42.285Z,26.53
2018-11-23T22:44:13.555Z,23.63
2018-11-23T22:46:44.769Z,24.40
2018-11-23T22:49:15.975Z,23.00
2018-11-23T22:51:47.226Z,29.53
2018-11-23T22:54:18.450Z,25.83
2018-11-23T22:56:50.809Z,26.43
2018-11-23T22:59:28.074Z,22.07
2018-11-23T23:01:59.228Z,25.73
2018-11-23T23:04:30.819Z,24.40
2018-11-23T23:07:01.998Z,27.43
2018-11-23T23:09:33.312Z,24.40
2018-11-23T23:12:04.519Z,20.37
2018-11-23T23:14:35.710Z,27.23
2018-11-23T23:17:06.954Z,22.67
2018-11-23T23:19:38.309Z,25.83
2018-11-23T23:22:09.613Z,23.13
2018-11-23T23:24:40.977Z,24.97
2018-11-23T23:27:17.495Z,27.90
2018-11-23T23:29:48.713Z,24.07
2018-11-23T23:32:19.865Z,23.70
2018-11-23T23:34:51.055Z,25.87
2018-11-23T23:37:22.213Z,25.07
2018-11-23T23:39:53.439Z,37.03
2018-11-23T23:42:24.593Z,26.20
2018-11-23T23:44:55.765Z,25.87
2018-11-23T23:47:26.979Z,23.77
2018-11-23T23:49:58.267Z,23.50
2018-11-23T23:52:29.448Z,22.30
2018-11-23T23:55:00.649Z,23.50
2018-11-23T23:57:35.897Z,25.23
